Time;durP1;ratioP1;P1;durP2;ratioP2;P2;SDS_P1;SDS_P2;PMS_P1;PMS_P2;Temp;Humidity;BMP_temperature;BMP_pressure;BME280_temperature;BME280_humidity;BME280_pressure;Samples;Min_cycle;Max_cycle;Signal;HPM_P1;HPM_P2
2024/01/17 00:00:26;;;;;;;0.70;0.70;;;2.20;63.20;;;;;;5099244;28;20020;-74
2024/01/17 00:02:51;;;;;;;0.70;0.70;;;2.20;63.10;;;;;;5096158;28;20103;-73
2024/01/17 00:05:17;;;;;;;2.63;1.88;;;2.20;63.10;;;;;;5102614;28;20059;-73
2024/01/17 00:07:42;;;;;;;0.70;0.70;;;2.20;63.10;;;;;;5103756;28;20129;-71
2024/01/17 00:10:11;;;;;;;0.73;0.73;;;2.20;63.30;;;;;;5108409;28;20104;-73
2024/01/17 00:12:36;;;;;;;0.60;0.60;;;2.30;63.20;;;;;;5096201;28;20028;-73
2024/01/17 00:15:02;;;;;;;0.60;0.60;;;2.30;63.20;;;;;;5099049;28;20046;-73
2024/01/17 00:17:28;;;;;;;0.82;0.82;;;2.30;63.30;;;;;;5105876;28;20373;-74
2024/01/17 00:19:54;;;;;;;1.70;1.60;;;2.30;63.50;;;;;;5106943;28;20019;-73
2024/01/17 00:22:19;;;;;;;0.70;0.70;;;2.30;63.50;;;;;;5099542;28;20036;-73
2024/01/17 00:24:45;;;;;;;1.05;0.95;;;2.30;63.60;;;;;;5104476;28;20024;-73
2024/01/17 00:27:13;;;;;;;0.88;0.88;;;2.40;63.70;;;;;;5089292;28;20024;-73
2024/01/17 00:29:38;;;;;;;0.70;0.70;;;2.40;63.40;;;;;;5107402;28;20096;-73
2024/01/17 00:32:04;;;;;;;0.60;0.60;;;2.40;63.40;;;;;;5109958;28;20028;-73
2024/01/17 00:34:29;;;;;;;0.70;0.70;;;2.30;63.30;;;;;;5101066;28;20384;-72
2024/01/17 00:36:55;;;;;;;0.70;0.70;;;2.30;63.10;;;;;;5109903;28;20507;-73
2024/01/17 00:39:22;;;;;;;4.03;1.33;;;2.30;63.00;;;;;;5094320;28;20236;-73
2024/01/17 00:41:48;;;;;;;0.70;0.70;;;2.30;62.80;;;;;;5098552;28;20028;-73
2024/01/17 00:44:17;;;;;;;0.70;0.70;;;2.30;62.80;;;;;;5096937;28;20069;-73
2024/01/17 00:46:43;;;;;;;0.70;0.70;;;2.20;62.80;;;;;;5097983;28;20550;-73
2024/01/17 00:49:11;;;;;;;0.70;0.70;;;2.20;63.00;;;;;;5087192;28;20119;-73
2024/01/17 00:51:37;;;;;;;2.15;1.45;;;2.20;62.90;;;;;;5103153;28;20045;-73
2024/01/17 00:54:03;;;;;;;0.60;0.60;;;2.20;62.70;;;;;;5099674;28;20027;-73
2024/01/17 00:56:34;;;;;;;1.77;1.63;;;2.20;62.60;;;;;;5109370;28;20027;-72
2024/01/17 00:58:59;;;;;;;;;;;2.10;62.50;;;;;;5096856;28;20497;-73
2024/01/17 01:01:25;;;;;;;0.70;0.70;;;2.10;62.60;;;;;;5104569;28;19959;-73
2024/01/17 01:03:51;;;;;;;0.60;0.60;;;2.00;62.70;;;;;;5100119;28;20379;-73
2024/01/17 01:06:16;;;;;;;2.15;1.83;;;2.00;62.80;;;;;;5107236;28;20036;-72
2024/01/17 01:08:42;;;;;;;0.60;0.60;;;2.00;63.00;;;;;;5110022;28;20363;-73
2024/01/17 01:11:07;;;;;;;0.68;0.68;;;2.00;63.20;;;;;;5101079;28;20039;-73
2024/01/17 01:13:33;;;;;;;0.90;0.90;;;2.10;63.30;;;;;;5101794;28;20102;-73
2024/01/17 01:15:59;;;;;;;0.60;0.60;;;2.10;63.40;;;;;;5091356;28;20442;-73
2024/01/17 01:18:24;;;;;;;0.70;0.70;;;2.10;63.20;;;;;;5103112;28;20036;-68
2024/01/17 01:20:50;;;;;;;0.65;0.65;;;2.10;63.10;;;;;;5074911;28;20036;-69
2024/01/17 01:23:15;;;;;;;0.70;0.70;;;2.00;62.80;;;;;;5089747;28;20024;-69
2024/01/17 01:25:41;;;;;;;0.70;0.70;;;2.00;62.50;;;;;;5092756;28;20025;-68
2024/01/17 01:28:06;;;;;;;0.70;0.70;;;2.00;62.50;;;;;;5093156;28;20036;-69
2024/01/17 01:30:32;;;;;;;0.70;0.70;;;1.90;62.20;;;;;;5090478;28;20048;-69
2024/01/17 01:32:57;;;;;;;0.70;0.70;;;1.80;62.30;;;;;;5091469;28;20028;-70
2024/01/17 01:35:23;;;;;;;0.65;0.65;;;1.80;62.30;;;;;;5090055;28;20447;-69
2024/01/17 01:37:48;;;;;;;0.68;0.68;;;1.80;62.20;;;;;;5091807;28;20420;-69
2024/01/17 01:40:14;;;;;;;0.70;0.70;;;1.70;62.20;;;;;;5085486;28;20487;-69
2024/01/17 01:42:46;;;;;;;0.63;0.63;;;1.70;62.20;;;;;;5094726;28;20035;-69
2024/01/17 01:45:11;;;;;;;1.55;1.45;;;1.70;62.40;;;;;;5088110;28;20028;-69
2024/01/17 01:47:38;;;;;;;0.90;0.90;;;1.70;62.60;;;;;;5086318;28;20054;-69
2024/01/17 01:50:05;;;;;;;0.70;0.70;;;1.60;62.50;;;;;;5091794;28;20055;-70
2024/01/17 01:52:33;;;;;;;0.70;0.70;;;1.70;62.50;;;;;;5088067;28;20063;-69
2024/01/17 01:54:59;;;;;;;0.70;0.70;;;1.70;62.70;;;;;;5096359;28;20024;-69
2024/01/17 01:57:26;;;;;;;0.65;0.65;;;1.70;62.60;;;;;;5090890;28;20020;-68
2024/01/17 01:59:52;;;;;;;3.70;1.40;;;1.70;62.60;;;;;;5090924;28;20024;-69
2024/01/17 02:02:17;;;;;;;0.70;0.70;;;1.70;62.50;;;;;;5092013;28;20036;-69
2024/01/17 02:04:43;;;;;;;0.70;0.70;;;1.60;62.40;;;;;;5093751;28;20051;-68
2024/01/17 02:07:12;;;;;;;0.80;0.80;;;1.60;62.50;;;;;;5094028;28;20024;-69
2024/01/17 02:09:38;;;;;;;0.70;0.70;;;1.60;62.40;;;;;;5088082;28;20025;-69
2024/01/17 02:12:06;;;;;;;0.70;0.70;;;1.50;62.40;;;;;;5088537;28;20024;-69
2024/01/17 02:14:32;;;;;;;0.70;0.70;;;1.50;62.10;;;;;;5092133;28;20028;-68
2024/01/17 02:16:58;;;;;;;0.60;0.60;;;1.50;61.90;;;;;;5096217;28;20035;-69
2024/01/17 02:19:25;;;;;;;0.70;0.70;;;1.40;61.80;;;;;;5088056;28;20532;-69
2024/01/17 02:21:50;;;;;;;2.30;2.10;;;1.40;61.60;;;;;;5089599;28;20506;-69
2024/01/17 02:24:23;;;;;;;0.68;0.68;;;1.30;61.60;;;;;;5095047;28;20020;-69
2024/01/17 02:26:49;;;;;;;0.70;0.70;;;1.30;61.80;;;;;;5110095;28;20077;-69
2024/01/17 02:29:14;;;;;;;0.70;0.70;;;1.30;61.70;;;;;;5100803;28;20439;-72
2024/01/17 02:31:41;;;;;;;0.70;0.70;;;1.20;61.50;;;;;;5104123;28;20036;-72
2024/01/17 02:34:06;;;;;;;1.60;1.50;;;1.20;61.50;;;;;;5099158;28;20020;-72
2024/01/17 02:36:32;;;;;;;0.70;0.70;;;1.10;61.40;;;;;;5095993;28;20375;-73
2024/01/17 02:38:57;;;;;;;0.70;0.70;;;1.00;61.40;;;;;;5098918;28;20570;-72
2024/01/17 02:41:23;;;;;;;0.80;0.80;;;1.00;61.30;;;;;;5107153;28;20040;-72
2024/01/17 02:43:48;;;;;;;0.90;0.90;;;1.00;61.30;;;;;;5084338;28;20398;-72
2024/01/17 02:46:14;;;;;;;0.70;0.70;;;1.00;61.30;;;;;;5084084;28;20024;-73
2024/01/17 02:48:39;;;;;;;4.22;3.08;;;0.90;61.50;;;;;;5099936;28;20437;-71
2024/01/17 02:51:05;;;;;;;0.77;0.77;;;0.90;61.80;;;;;;5095429;28;20029;-72
2024/01/17 02:53:30;;;;;;;0.70;0.70;;;0.90;62.00;;;;;;5102252;28;20032;-72
2024/01/17 02:55:56;;;;;;;0.80;0.80;;;1.00;62.00;;;;;;5095350;28;20040;-72
2024/01/17 02:58:21;;;;;;;0.70;0.70;;;0.90;62.00;;;;;;5110104;28;20024;-72
2024/01/17 03:00:47;;;;;;;1.00;1.00;;;1.00;61.90;;;;;;5111534;28;20044;-72
2024/01/17 03:03:13;;;;;;;0.80;0.80;;;0.90;61.80;;;;;;5101677;28;20015;-72
2024/01/17 03:05:38;;;;;;;0.70;0.70;;;0.90;61.80;;;;;;5105557;28;20535;-72
2024/01/17 03:08:05;;;;;;;0.70;0.70;;;0.90;61.60;;;;;;5098466;28;20164;-72
2024/01/17 03:10:30;;;;;;;0.80;0.80;;;0.80;61.50;;;;;;5097131;28;20029;-72
2024/01/17 03:12:56;;;;;;;0.70;0.70;;;0.80;61.50;;;;;;5100921;28;20368;-71
2024/01/17 03:15:22;;;;;;;0.70;0.70;;;0.80;61.50;;;;;;5102275;28;20030;-72
2024/01/17 03:17:47;;;;;;;1.90;1.80;;;0.80;61.70;;;;;;5103258;28;20399;-71
2024/01/17 03:20:13;;;;;;;0.98;0.98;;;0.80;61.70;;;;;;5108924;28;20125;-72
2024/01/17 03:22:42;;;;;;;0.70;0.70;;;0.80;61.60;;;;;;5111679;28;20512;-72
2024/01/17 03:25:08;;;;;;;0.80;0.80;;;0.70;61.50;;;;;;5097975;28;20028;-71
2024/01/17 03:27:34;;;;;;;0.70;0.70;;;0.70;61.30;;;;;;5103176;28;20020;-72
2024/01/17 03:29:59;;;;;;;1.10;1.10;;;0.70;61.20;;;;;;5106666;28;20479;-72
2024/01/17 03:32:25;;;;;;;0.70;0.70;;;0.70;61.30;;;;;;5110243;28;20035;-72
2024/01/17 03:34:51;;;;;;;0.70;0.70;;;0.70;61.40;;;;;;5098312;28;20034;-71
2024/01/17 03:37:18;;;;;;;0.75;0.75;;;0.70;61.70;;;;;;5094706;28;20463;-72
2024/01/17 03:39:47;;;;;;;1.02;1.02;;;0.70;61.80;;;;;;5091301;28;20031;-72
2024/01/17 03:42:15;;;;;;;0.70;0.70;;;0.80;62.10;;;;;;5106383;28;20088;-72
2024/01/17 03:44:42;;;;;;;0.60;0.60;;;0.80;62.30;;;;;;5095867;28;20383;-72
2024/01/17 03:47:08;;;;;;;0.70;0.70;;;0.80;62.50;;;;;;5110209;28;20027;-72
2024/01/17 03:49:34;;;;;;;0.70;0.70;;;0.90;62.50;;;;;;5102515;28;20267;-68
2024/01/17 03:51:59;;;;;;;1.05;1.05;;;0.90;62.50;;;;;;5092763;28;20036;-68
2024/01/17 03:54:25;;;;;;;0.65;0.65;;;0.90;62.50;;;;;;5088383;28;20396;-69
2024/01/17 03:56:52;;;;;;;0.70;0.70;;;0.90;62.60;;;;;;5097450;28;20374;-68
2024/01/17 03:59:17;;;;;;;0.80;0.80;;;1.00;62.50;;;;;;5112268;28;20020;-68
2024/01/17 04:01:44;;;;;;;0.70;0.70;;;1.00;62.40;;;;;;5109622;28;20153;-68
2024/01/17 04:04:10;;;;;;;1.10;0.80;;;1.00;62.30;;;;;;5096612;28;20016;-67
2024/01/17 04:06:36;;;;;;;0.70;0.70;;;1.00;62.20;;;;;;5095508;28;20521;-67
2024/01/17 04:09:02;;;;;;;0.60;0.60;;;0.90;62.20;;;;;;5096014;28;20031;-67
2024/01/17 04:11:27;;;;;;;1.13;1.02;;;1.00;62.00;;;;;;5100533;28;20046;-68
2024/01/17 04:13:52;;;;;;;1.83;1.70;;;0.90;61.80;;;;;;5098890;28;20040;-67
2024/01/17 04:16:18;;;;;;;0.60;0.60;;;0.80;61.70;;;;;;5093834;28;20483;-67
2024/01/17 04:18:44;;;;;;;0.75;0.75;;;0.90;61.80;;;;;;5098493;28;20035;-68
2024/01/17 04:21:17;;;;;;;0.70;0.70;;;0.90;61.80;;;;;;5105353;28;20030;-68
2024/01/17 04:23:42;;;;;;;0.70;0.70;;;0.80;61.80;;;;;;5100015;28;20106;-67
2024/01/17 04:26:08;;;;;;;0.70;0.70;;;0.80;61.80;;;;;;5092228;28;20111;-68
2024/01/17 04:28:33;;;;;;;0.70;0.70;;;0.80;61.80;;;;;;5090449;28;20016;-67
2024/01/17 04:30:59;;;;;;;0.70;0.70;;;0.80;61.80;;;;;;5112467;28;20135;-68
2024/01/17 04:33:25;;;;;;;0.70;0.70;;;0.80;61.60;;;;;;5104446;28;20075;-68
2024/01/17 04:35:50;;;;;;;1.20;1.17;;;0.80;61.60;;;;;;5091183;28;20117;-68
2024/01/17 04:38:16;;;;;;;0.60;0.60;;;0.80;61.60;;;;;;5094616;28;20107;-68
2024/01/17 04:40:41;;;;;;;0.70;0.70;;;0.80;61.50;;;;;;5085670;28;20106;-68
2024/01/17 04:43:07;;;;;;;0.70;0.70;;;0.80;61.60;;;;;;5099763;28;20030;-68
2024/01/17 04:45:32;;;;;;;1.17;1.17;;;0.80;61.60;;;;;;5099149;28;20090;-67
2024/01/17 04:47:58;;;;;;;1.30;1.25;;;0.80;61.70;;;;;;5103739;28;20023;-68
2024/01/17 04:50:23;;;;;;;0.65;0.65;;;0.70;61.80;;;;;;5111354;28;20096;-68
2024/01/17 04:52:50;;;;;;;0.95;0.95;;;0.80;61.80;;;;;;5094744;28;20599;-68
2024/01/17 04:55:15;;;;;;;0.70;0.70;;;0.80;61.80;;;;;;5102942;28;20032;-68
2024/01/17 04:57:41;;;;;;;0.70;0.70;;;0.80;61.90;;;;;;5108262;28;20045;-68
2024/01/17 05:00:08;;;;;;;0.80;0.80;;;0.80;61.80;;;;;;5086942;28;20054;-67
2024/01/17 05:02:34;;;;;;;0.88;0.88;;;0.80;62.00;;;;;;5076331;28;20028;-68
2024/01/17 05:04:59;;;;;;;0.70;0.70;;;0.80;62.00;;;;;;5084680;28;20494;-67
2024/01/17 05:07:25;;;;;;;0.70;0.70;;;0.80;62.00;;;;;;5104223;28;20032;-67
2024/01/17 05:09:50;;;;;;;0.70;0.70;;;0.90;62.00;;;;;;5102647;28;20035;-72
2024/01/17 05:12:16;;;;;;;1.50;1.40;;;0.90;62.00;;;;;;5096958;28;20036;-71
2024/01/17 05:14:42;;;;;;;0.70;0.70;;;0.90;62.00;;;;;;5100882;28;20028;-72
2024/01/17 05:17:08;;;;;;;0.70;0.70;;;0.90;62.20;;;;;;5088016;28;20036;-72
2024/01/17 05:19:33;;;;;;;0.70;0.70;;;0.90;62.00;;;;;;5092603;28;20032;-72
2024/01/17 05:21:59;;;;;;;0.80;0.80;;;0.90;62.10;;;;;;5091879;28;20074;-72
2024/01/17 05:24:24;;;;;;;0.70;0.70;;;0.90;62.00;;;;;;5080816;28;20391;-71
2024/01/17 05:26:50;;;;;;;1.38;1.33;;;0.90;61.80;;;;;;5085107;28;20040;-71
2024/01/17 05:29:15;;;;;;;0.80;0.80;;;0.90;61.90;;;;;;5084859;28;20031;-71
2024/01/17 05:31:44;;;;;;;1.05;1.05;;;1.00;61.90;;;;;;5089742;28;20043;-71
2024/01/17 05:34:09;;;;;;;0.88;0.88;;;0.90;62.00;;;;;;5097804;28;20032;-71
2024/01/17 05:36:37;;;;;;;0.60;0.60;;;1.00;62.00;;;;;;5086062;28;20039;-72
2024/01/17 05:39:04;;;;;;;0.70;0.70;;;1.00;62.20;;;;;;5111062;28;20047;-72
2024/01/17 05:41:30;;;;;;;0.70;0.70;;;1.00;62.00;;;;;;5102933;28;20035;-72
2024/01/17 05:43:55;;;;;;;0.57;0.57;;;1.00;62.10;;;;;;5098871;28;20376;-71
2024/01/17 05:46:21;;;;;;;0.70;0.70;;;1.10;62.30;;;;;;5106933;28;20031;-72
2024/01/17 05:48:47;;;;;;;1.52;1.42;;;1.00;62.30;;;;;;5093801;28;20020;-72
2024/01/17 05:51:13;;;;;;;0.68;0.68;;;1.10;62.10;;;;;;5105024;28;20409;-71
2024/01/17 05:53:38;;;;;;;0.65;0.65;;;1.10;62.10;;;;;;5099161;28;20065;-72
2024/01/17 05:56:04;;;;;;;0.70;0.70;;;1.10;62.40;;;;;;5104850;28;20032;-72
2024/01/17 05:58:29;;;;;;;0.70;0.70;;;1.10;62.20;;;;;;5093959;28;20024;-72
2024/01/17 06:00:55;;;;;;;1.40;1.27;;;1.10;62.20;;;;;;5110144;28;20478;-71
2024/01/17 06:03:20;;;;;;;0.70;0.70;;;1.10;62.20;;;;;;5098488;28;20011;-72
2024/01/17 06:05:46;;;;;;;0.65;0.65;;;1.10;62.10;;;;;;5089297;28;20037;-71
2024/01/17 06:08:12;;;;;;;0.70;0.70;;;1.10;62.00;;;;;;5094159;28;20023;-71
2024/01/17 06:10:40;;;;;;;0.60;0.60;;;1.10;62.10;;;;;;5094384;28;20068;-71
2024/01/17 06:13:08;;;;;;;0.77;0.77;;;1.10;62.00;;;;;;5095513;28;20153;-72
2024/01/17 06:15:33;;;;;;;0.70;0.70;;;1.10;62.10;;;;;;5095975;28;20543;-71
2024/01/17 06:18:00;;;;;;;0.70;0.70;;;1.10;62.00;;;;;;5091491;28;20115;-68
2024/01/17 06:20:25;;;;;;;0.70;0.70;;;1.10;61.90;;;;;;5091392;28;20420;-67
2024/01/17 06:22:51;;;;;;;0.70;0.70;;;1.10;61.90;;;;;;5081436;28;20030;-67
2024/01/17 06:25:16;;;;;;;0.60;0.60;;;1.00;61.90;;;;;;5084259;28;20426;-67
2024/01/17 06:27:42;;;;;;;0.70;0.70;;;1.00;62.00;;;;;;5076682;28;20118;-67
2024/01/17 06:30:08;;;;;;;0.70;0.70;;;1.00;61.90;;;;;;5114019;28;20510;-67
2024/01/17 06:32:33;;;;;;;0.70;0.70;;;1.00;62.00;;;;;;5097288;28;20039;-67
2024/01/17 06:34:59;;;;;;;0.75;0.75;;;1.00;62.00;;;;;;5105458;28;20085;-67
2024/01/17 06:37:24;;;;;;;0.70;0.70;;;1.10;62.00;;;;;;5106849;28;20119;-67
2024/01/17 06:39:50;;;;;;;0.63;0.63;;;1.00;62.00;;;;;;5105039;28;20039;-67
2024/01/17 06:42:16;;;;;;;0.70;0.70;;;1.00;62.00;;;;;;5099773;28;20028;-66
2024/01/17 06:44:43;;;;;;;0.70;0.70;;;1.00;61.80;;;;;;5103449;28;20091;-66
2024/01/17 06:47:08;;;;;;;0.70;0.70;;;1.00;61.90;;;;;;5108776;28;20034;-66
2024/01/17 06:49:35;;;;;;;0.70;0.70;;;1.00;61.90;;;;;;5102901;28;20603;-66
2024/01/17 06:52:01;;;;;;;0.70;0.70;;;1.00;61.90;;;;;;5101265;28;20027;-66
2024/01/17 06:54:26;;;;;;;0.60;0.60;;;1.00;61.80;;;;;;5101677;28;20036;-66
2024/01/17 06:56:52;;;;;;;0.85;0.82;;;0.90;61.80;;;;;;5110499;28;20032;-66
2024/01/17 06:59:17;;;;;;;0.70;0.70;;;0.90;61.70;;;;;;5100930;28;20028;-67
2024/01/17 07:01:43;;;;;;;1.17;1.17;;;0.90;61.70;;;;;;5103489;28;20043;-66
2024/01/17 07:04:09;;;;;;;0.70;0.70;;;0.90;61.70;;;;;;5101204;28;20624;-67
2024/01/17 07:06:35;;;;;;;0.75;0.75;;;0.90;61.80;;;;;;5094327;28;20475;-67
2024/01/17 07:09:01;;;;;;;0.60;0.60;;;0.90;61.70;;;;;;5074914;28;20027;-67
2024/01/17 07:11:26;;;;;;;0.90;0.90;;;0.90;61.80;;;;;;5101154;28;20040;-68
2024/01/17 07:13:52;;;;;;;0.60;0.60;;;0.90;61.90;;;;;;5101741;28;20101;-68
2024/01/17 07:16:17;;;;;;;0.70;0.70;;;0.90;62.00;;;;;;5093298;28;20042;-68
2024/01/17 07:18:43;;;;;;;0.70;0.70;;;0.90;62.00;;;;;;5111447;28;20123;-68
2024/01/17 07:21:09;;;;;;;0.63;0.63;;;0.90;62.20;;;;;;5112109;28;20027;-67
2024/01/17 07:23:36;;;;;;;0.80;0.80;;;1.00;62.30;;;;;;5103988;28;20429;-68
2024/01/17 07:26:03;;;;;;;1.00;0.82;;;1.00;62.20;;;;;;5106234;28;20088;-68
2024/01/17 07:28:29;;;;;;;0.70;0.70;;;1.00;62.10;;;;;;5096326;28;20078;-68
2024/01/17 07:30:54;;;;;;;0.70;0.70;;;1.00;62.10;;;;;;5109568;28;20028;-66
2024/01/17 07:33:20;;;;;;;0.70;0.70;;;1.00;62.10;;;;;;5100411;28;20055;-68
2024/01/17 07:35:46;;;;;;;0.60;0.60;;;1.00;62.10;;;;;;5104378;28;20038;-67
2024/01/17 07:38:11;;;;;;;0.70;0.70;;;1.00;62.00;;;;;;5098624;28;20056;-67
2024/01/17 07:40:37;;;;;;;0.65;0.65;;;1.00;62.00;;;;;;5109028;28;20048;-67
2024/01/17 07:43:03;;;;;;;0.80;0.80;;;1.00;62.00;;;;;;5097437;28;20019;-67
2024/01/17 07:45:28;;;;;;;0.70;0.70;;;1.00;62.10;;;;;;5095756;28;20039;-67
2024/01/17 07:47:54;;;;;;;0.70;0.70;;;1.00;62.00;;;;;;5104531;28;20016;-67
2024/01/17 07:50:19;;;;;;;0.80;0.80;;;1.00;62.00;;;;;;5112657;28;20019;-68
2024/01/17 07:52:45;;;;;;;0.80;0.80;;;1.00;62.10;;;;;;5093337;28;20024;-68
2024/01/17 07:55:11;;;;;;;0.70;0.70;;;1.10;62.10;;;;;;5098255;28;20026;-67
2024/01/17 07:57:36;;;;;;;0.70;0.70;;;1.10;62.20;;;;;;5103169;28;20445;-67
2024/01/17 08:00:02;;;;;;;1.60;1.48;;;1.10;62.20;;;;;;5105257;28;20113;-67
2024/01/17 08:02:28;;;;;;;0.77;0.77;;;1.10;62.40;;;;;;5090718;28;20118;-68
2024/01/17 08:04:53;;;;;;;0.90;0.90;;;1.20;62.50;;;;;;5086895;28;20023;-67
2024/01/17 08:07:24;;;;;;;1.10;1.10;;;1.20;62.60;;;;;;5095849;28;20036;-67
2024/01/17 08:09:53;;;;;;;;;;;1.30;62.70;;;;;;5102828;28;20026;-68
2024/01/17 08:12:19;;;;;;;0.70;0.70;;;1.30;62.80;;;;;;5078377;28;20313;-67
2024/01/17 08:14:45;;;;;;;1.13;1.08;;;1.30;62.70;;;;;;5083222;28;20092;-67
2024/01/17 08:17:11;;;;;;;0.80;0.80;;;1.40;62.80;;;;;;5079038;28;20032;-68
2024/01/17 08:19:37;;;;;;;0.70;0.70;;;1.40;62.90;;;;;;5081153;28;20417;-67
2024/01/17 08:22:04;;;;;;;0.73;0.73;;;1.40;62.90;;;;;;5071068;28;20024;-67
2024/01/17 08:24:30;;;;;;;1.33;1.23;;;1.50;63.10;;;;;;5079139;28;20127;-69
2024/01/17 08:26:56;;;;;;;0.70;0.70;;;1.60;63.10;;;;;;5061024;28;20398;-68
2024/01/17 08:29:22;;;;;;;0.60;0.60;;;1.60;63.20;;;;;;5099054;28;20549;-67
2024/01/17 08:31:48;;;;;;;0.70;0.70;;;1.70;63.20;;;;;;5098989;28;20490;-68
2024/01/17 08:34:14;;;;;;;0.60;0.60;;;1.70;63.30;;;;;;5100053;28;20016;-67
2024/01/17 08:36:40;;;;;;;0.70;0.70;;;1.80;63.40;;;;;;5108442;28;20035;-67
2024/01/17 08:39:06;;;;;;;1.27;1.25;;;1.90;63.50;;;;;;5094901;28;20387;-71
2024/01/17 08:41:33;;;;;;;0.85;0.85;;;1.90;63.70;;;;;;5087126;28;20581;-72
2024/01/17 08:44:01;;;;;;;0.60;0.60;;;2.00;63.80;;;;;;5096246;28;20023;-72
2024/01/17 08:46:27;;;;;;;0.70;0.70;;;2.10;63.80;;;;;;5094632;28;20052;-72
2024/01/17 08:48:53;;;;;;;0.60;0.60;;;2.10;63.80;;;;;;5102642;28;20050;-72
2024/01/17 08:51:21;;;;;;;0.70;0.70;;;2.20;63.90;;;;;;5102239;28;20039;-72
2024/01/17 08:53:47;;;;;;;0.70;0.70;;;2.30;63.70;;;;;;5081286;28;20035;-72
2024/01/17 08:56:14;;;;;;;0.88;0.88;;;2.30;63.70;;;;;;5091336;28;20035;-72
2024/01/17 08:58:40;;;;;;;0.60;0.60;;;2.40;63.80;;;;;;5096335;28;20361;-72
2024/01/17 09:01:06;;;;;;;1.10;1.08;;;2.40;63.80;;;;;;5104961;28;20046;-72
2024/01/17 09:03:34;;;;;;;0.60;0.60;;;2.50;63.80;;;;;;5084944;28;20376;-72
2024/01/17 09:06:00;;;;;;;0.70;0.70;;;2.50;64.00;;;;;;5104012;28;20024;-72
2024/01/17 09:08:26;;;;;;;1.05;1.05;;;2.70;64.30;;;;;;5094786;28;20352;-72
2024/01/17 09:10:51;;;;;;;1.05;1.05;;;2.70;64.10;;;;;;5086218;28;20058;-72
2024/01/17 09:13:17;;;;;;;0.70;0.70;;;2.80;64.30;;;;;;5104618;28;20028;-72
2024/01/17 09:15:43;;;;;;;0.93;0.93;;;2.90;64.70;;;;;;5088949;28;20029;-72
2024/01/17 09:18:08;;;;;;;0.90;0.90;;;3.00;64.60;;;;;;5098550;28;20024;-72
2024/01/17 09:20:34;;;;;;;0.60;0.60;;;3.10;64.70;;;;;;5100100;28;20052;-72
2024/01/17 09:22:59;;;;;;;0.80;0.80;;;3.20;65.00;;;;;;5106783;28;20035;-72
2024/01/17 09:25:25;;;;;;;0.98;0.95;;;3.30;65.00;;;;;;5098571;28;20038;-72
2024/01/17 09:27:50;;;;;;;1.77;1.67;;;3.40;64.90;;;;;;5098882;28;20492;-72
2024/01/17 09:30:16;;;;;;;1.00;1.00;;;3.40;65.10;;;;;;5087308;28;20055;-72
2024/01/17 09:32:44;;;;;;;1.45;1.38;;;3.50;65.10;;;;;;5107435;28;20035;-72
2024/01/17 09:35:09;;;;;;;0.60;0.60;;;3.60;65.20;;;;;;5089700;28;20020;-72
2024/01/17 09:37:36;;;;;;;1.00;1.00;;;3.70;65.40;;;;;;5095067;28;20062;-72
2024/01/17 09:40:05;;;;;;;0.70;0.70;;;3.80;65.50;;;;;;5096775;28;20073;-72
2024/01/17 09:42:32;;;;;;;0.70;0.70;;;3.80;65.40;;;;;;5103317;28;20036;-72
2024/01/17 09:44:58;;;;;;;0.70;0.70;;;3.90;65.40;;;;;;5106114;28;20022;-72
2024/01/17 09:47:25;;;;;;;0.60;0.60;;;4.00;65.70;;;;;;5107607;28;20055;-70
2024/01/17 09:49:51;;;;;;;0.70;0.70;;;4.00;65.60;;;;;;5102670;28;20023;-72
2024/01/17 09:52:20;;;;;;;0.70;0.70;;;4.10;65.40;;;;;;5100396;28;20059;-72
2024/01/17 09:54:46;;;;;;;0.75;0.75;;;4.10;65.80;;;;;;5100712;28;20013;-72
2024/01/17 09:57:19;;;;;;;0.80;0.80;;;4.20;65.70;;;;;;5109018;28;20056;-72
2024/01/17 09:59:58;;;;;;;0.88;0.88;;;4.30;65.90;;;;;;5102605;28;20028;-72
2024/01/17 10:02:27;;;;;;;0.90;0.90;;;4.40;66.00;;;;;;5097844;28;20035;-72
2024/01/17 10:04:58;;;;;;;0.98;0.98;;;4.40;66.20;;;;;;5106450;28;20106;-73
2024/01/17 10:07:23;;;;;;;0.60;0.60;;;4.60;66.30;;;;;;5104371;28;20033;-72
2024/01/17 10:09:49;;;;;;;0.70;0.70;;;4.70;66.30;;;;;;5097293;28;20035;-73
2024/01/17 10:12:18;;;;;;;0.60;0.60;;;4.70;65.80;;;;;;5100548;28;20482;-72
2024/01/17 10:14:43;;;;;;;0.60;0.60;;;4.70;66.00;;;;;;5081950;28;20077;-72
2024/01/17 10:17:10;;;;;;;1.58;1.48;;;4.80;66.50;;;;;;5101820;28;20032;-72
2024/01/17 10:19:36;;;;;;;0.60;0.60;;;4.90;66.00;;;;;;5112940;28;20047;-73
2024/01/17 10:22:04;;;;;;;0.60;0.60;;;5.00;66.30;;;;;;5103240;28;20060;-73
2024/01/17 10:24:37;;;;;;;0.80;0.80;;;5.10;66.50;;;;;;5091869;28;20487;-73
2024/01/17 10:27:09;;;;;;;0.70;0.70;;;5.20;66.10;;;;;;5072448;28;20479;-73
2024/01/17 10:29:39;;;;;;;0.60;0.60;;;5.20;66.20;;;;;;5103035;28;20415;-72
2024/01/17 10:32:05;;;;;;;0.60;0.60;;;5.20;66.00;;;;;;5102210;28;20028;-73
2024/01/17 10:34:31;;;;;;;1.92;1.55;;;5.30;66.00;;;;;;5098692;28;20540;-73
2024/01/17 10:36:57;;;;;;;0.90;0.90;;;5.30;66.20;;;;;;5101736;28;20032;-73
2024/01/17 10:39:25;;;;;;;0.60;0.60;;;5.30;66.10;;;;;;5115949;28;20023;-73
2024/01/17 10:41:53;;;;;;;0.85;0.85;;;5.30;66.20;;;;;;5097686;28;20035;-73
2024/01/17 10:44:18;;;;;;;1.30;1.27;;;5.40;66.30;;;;;;5093211;28;20028;-73
2024/01/17 10:46:47;;;;;;;0.80;0.80;;;5.40;66.40;;;;;;5098404;28;20039;-73
2024/01/17 10:49:13;;;;;;;0.75;0.75;;;5.50;66.30;;;;;;5092864;28;20020;-73
2024/01/17 10:51:45;;;;;;;1.33;1.23;;;5.50;66.20;;;;;;5097238;28;20027;-74
2024/01/17 10:54:16;;;;;;;1.10;1.10;;;5.50;66.40;;;;;;5096658;28;20012;-73
2024/01/17 10:56:52;;;;;;;1.90;1.80;;;5.50;66.20;;;;;;5099235;28;20499;-73
2024/01/17 10:59:20;;;;;;;0.80;0.80;;;5.60;65.90;;;;;;5092135;28;20109;-69
2024/01/17 11:01:51;;;;;;;1.05;1.05;;;5.50;65.60;;;;;;5095746;28;20478;-70
2024/01/17 11:04:21;;;;;;;1.70;1.60;;;5.50;65.90;;;;;;5080648;28;20386;-69
2024/01/17 11:06:49;;;;;;;0.80;0.80;;;5.60;65.50;;;;;;5096077;28;20044;-69
2024/01/17 11:09:15;;;;;;;2.15;1.48;;;5.50;65.80;;;;;;5086243;28;20077;-69
2024/01/17 11:11:42;;;;;;;0.93;0.93;;;5.50;65.50;;;;;;5075116;28;20051;-69
2024/01/17 11:14:08;;;;;;;0.60;0.60;;;5.60;65.90;;;;;;5082978;28;20020;-70
2024/01/17 11:16:39;;;;;;;2.15;1.48;;;5.60;65.90;;;;;;5095866;28;20044;-68
2024/01/17 11:19:08;;;;;;;2.67;1.75;;;5.70;65.90;;;;;;5103928;28;20463;-69
2024/01/17 11:21:34;;;;;;;0.65;0.65;;;5.70;65.90;;;;;;5077987;28;20067;-68
2024/01/17 11:24:10;;;;;;;0.60;0.60;;;5.80;66.30;;;;;;5092748;28;20117;-68
2024/01/17 11:26:42;;;;;;;0.90;0.90;;;5.80;65.80;;;;;;5109986;28;20112;-68
2024/01/17 11:29:26;;;;;;;1.85;1.65;;;5.80;65.70;;;;;;5092028;28;20020;-68
2024/01/17 11:32:10;;;;;;;1.38;1.27;;;5.90;65.90;;;;;;5097463;28;20104;-69
2024/01/17 11:34:35;;;;;;;0.82;0.82;;;5.90;66.10;;;;;;5091067;28;20030;-69
2024/01/17 11:37:01;;;;;;;1.30;1.20;;;5.90;65.50;;;;;;5083559;28;20444;-69
2024/01/17 11:39:27;;;;;;;0.60;0.60;;;5.90;65.40;;;;;;5091501;28;20408;-70
2024/01/17 11:41:54;;;;;;;1.50;1.40;;;5.90;65.10;;;;;;5092062;28;20039;-69
2024/01/17 11:44:23;;;;;;;2.55;1.48;;;5.90;65.20;;;;;;5086910;28;20024;-69
2024/01/17 11:46:51;;;;;;;2.83;1.65;;;5.90;65.60;;;;;;5093526;28;20454;-69
2024/01/17 11:49:28;;;;;;;0.60;0.60;;;6.00;65.50;;;;;;5112336;28;20061;-69
2024/01/17 11:51:53;;;;;;;0.80;0.80;;;6.00;65.40;;;;;;5104390;28;20437;-69
2024/01/17 11:54:19;;;;;;;3.10;2.15;;;6.00;65.30;;;;;;5096771;28;20020;-69
2024/01/17 11:56:45;;;;;;;0.93;0.85;;;6.10;65.80;;;;;;5103200;28;20291;-69
2024/01/17 11:59:12;;;;;;;2.05;1.95;;;6.10;65.80;;;;;;5090428;28;20100;-69
2024/01/17 12:01:40;;;;;;;1.05;1.05;;;6.20;66.30;;;;;;5085635;28;20036;-70
2024/01/17 12:04:17;;;;;;;0.60;0.60;;;6.20;66.20;;;;;;5105669;28;20535;-70
2024/01/17 12:06:51;;;;;;;3.50;1.83;;;6.30;66.70;;;;;;5065921;28;20052;-69
2024/01/17 12:09:20;;;;;;;1.20;1.20;;;6.30;66.50;;;;;;5103536;28;20016;-72
2024/01/17 12:11:46;;;;;;;0.60;0.60;;;6.40;66.30;;;;;;5090475;28;20520;-73
2024/01/17 12:14:13;;;;;;;0.73;0.73;;;6.40;66.50;;;;;;5098394;28;20099;-72
2024/01/17 12:16:39;;;;;;;0.60;0.60;;;6.50;66.60;;;;;;5108275;28;20479;-72
2024/01/17 12:19:05;;;;;;;2.42;1.80;;;6.50;66.20;;;;;;5094419;28;20076;-73
2024/01/17 12:21:30;;;;;;;0.90;0.90;;;6.50;65.80;;;;;;5103906;28;20032;-72
2024/01/17 12:23:56;;;;;;;5.60;1.90;;;6.50;65.60;;;;;;5090805;28;20024;-72
2024/01/17 12:26:22;;;;;;;0.63;0.63;;;6.50;65.60;;;;;;5074769;28;20028;-73
2024/01/17 12:28:48;;;;;;;0.50;0.50;;;6.50;65.70;;;;;;5083700;28;20980;-72
2024/01/17 12:31:16;;;;;;;2.15;0.90;;;6.50;65.10;;;;;;5077667;28;20030;-73
2024/01/17 12:33:41;;;;;;;0.70;0.70;;;6.50;65.30;;;;;;5099538;28;20110;-72
2024/01/17 12:36:08;;;;;;;2.03;1.83;;;6.50;66.00;;;;;;5080285;28;20112;-73
2024/01/17 12:38:36;;;;;;;0.60;0.60;;;6.50;65.60;;;;;;5086781;28;20026;-72
2024/01/17 12:41:03;;;;;;;1.67;1.58;;;6.50;66.00;;;;;;5088438;28;20062;-73
2024/01/17 12:43:31;;;;;;;0.50;0.50;;;6.50;65.40;;;;;;5088399;28;20479;-72
2024/01/17 12:45:57;;;;;;;0.70;0.70;;;6.50;65.50;;;;;;5103781;28;20028;-72
2024/01/17 12:48:22;;;;;;;0.88;0.88;;;6.50;65.20;;;;;;5070662;28;20108;-74
2024/01/17 12:51:02;;;;;;;0.85;0.85;;;6.50;65.20;;;;;;5089059;28;20480;-72
2024/01/17 12:53:28;;;;;;;0.88;0.88;;;6.50;65.30;;;;;;5094599;28;20070;-72